CheckWX is a tool to help pilots better visualize weather data.  It is not intended as a substitute for an official pre-flight weather briefing.

05:42:38 UTC

04V METAR
Saguache Municipal Airport
Saguache, Colorado, USA
Current

25 mins ago

K04V 250518Z AUTO 00000KT 10SM CLR 00/M03 A3029 RMK AO2
Observed
Mar-25 @ 05:18 UTC
Visibility
10 SM
Flight Rules
VFR
Cloud Levels
  • Clear skies
Temperature
C / 32°F
Dewpoint
-3°C / 27°F
Humidity
80%
Altimeter
30.29" Hg
Pressure
1025.72 hPa
Previous

49 mins ago

K04V 250454Z AUTO 00000KT 10SM CLR 00/M03 A3029 RMK AO2
Observed
Mar-25 @ 04:54 UTC
Visibility
10 SM
Flight Rules
VFR
Cloud Levels
  • Clear skies
Temperature
C / 32°F
Dewpoint
-3°C / 27°F
Humidity
80%
Altimeter
30.29" Hg
Pressure
1025.72 hPa
Previous

1 hour ago

K04V 250436Z AUTO 00000KT 10SM CLR 00/M03 A3028 RMK AO2
Observed
Mar-25 @ 04:36 UTC
Visibility
10 SM
Flight Rules
VFR
Cloud Levels
  • Clear skies
Temperature
C / 32°F
Dewpoint
-3°C / 27°F
Humidity
80%
Altimeter
30.28" Hg
Pressure
1025.42 hPa